createdAt,value
2023-12-24T00:01:00.944Z,0
2023-12-24T00:01:59.634Z,0
2023-12-24T00:03:01.327Z,0
2023-12-24T00:04:00.356Z,0
2023-12-24T00:04:59.015Z,0
2023-12-24T00:06:00.149Z,0
2023-12-24T00:06:59.016Z,0
2023-12-24T00:07:59.924Z,0
2023-12-24T00:09:00.981Z,0
2023-12-24T00:09:59.655Z,0
2023-12-24T00:11:00.994Z,0
2023-12-24T00:11:59.635Z,0
2023-12-24T00:13:00.271Z,0
2023-12-24T00:13:58.987Z,0
2023-12-24T00:14:59.728Z,0
2023-12-24T00:16:01.204Z,0
2023-12-24T00:16:59.979Z,0
2023-12-24T00:17:58.844Z,0
2023-12-24T00:19:01.186Z,0
2023-12-24T00:20:00.207Z,0
2023-12-24T00:20:59.220Z,0
2023-12-24T00:22:00.115Z,0
2023-12-24T00:22:58.776Z,0
2023-12-24T00:24:00.974Z,0
2023-12-24T00:24:59.644Z,0
2023-12-24T00:26:01.058Z,0
2023-12-24T00:26:59.773Z,0
2023-12-24T00:28:00.997Z,0
2023-12-24T00:28:59.716Z,0
2023-12-24T00:30:01.010Z,0
2023-12-24T00:30:59.841Z,0
2023-12-24T00:32:01.057Z,0
2023-12-24T00:32:59.843Z,0
2023-12-24T00:34:01.106Z,0
2023-12-24T00:34:59.843Z,0
2023-12-24T00:36:01.069Z,0
2023-12-24T00:36:59.828Z,0
2023-12-24T00:38:00.990Z,0
2023-12-24T00:38:59.729Z,0
2023-12-24T00:40:01.017Z,0
2023-12-24T00:40:59.779Z,0
2023-12-24T00:42:01.025Z,0
2023-12-24T00:42:59.675Z,0
2023-12-24T00:44:01.181Z,0
2023-12-24T00:44:59.893Z,0
2023-12-24T00:46:01.007Z,0
2023-12-24T00:46:59.738Z,0
2023-12-24T00:48:01.199Z,0
2023-12-24T00:49:00.079Z,0
2023-12-24T00:49:58.832Z,0
2023-12-24T00:51:02.556Z,0
2023-12-24T00:52:01.042Z,0
2023-12-24T00:52:59.731Z,0
2023-12-24T00:54:00.963Z,0
2023-12-24T00:54:59.731Z,0
2023-12-24T00:56:06.429Z,0
2023-12-24T00:57:01.083Z,0
2023-12-24T00:57:59.801Z,0
2023-12-24T00:59:01.046Z,0
2023-12-24T00:59:59.872Z,0
2023-12-24T01:01:09.725Z,0
2023-12-24T01:02:00.356Z,0
2023-12-24T01:02:59.081Z,0
2023-12-24T01:03:59.862Z,0
2023-12-24T01:05:01.175Z,0
2023-12-24T01:06:12.452Z,0
2023-12-24T01:06:59.916Z,0
2023-12-24T01:08:01.087Z,0
2023-12-24T01:08:59.833Z,0
2023-12-24T01:10:00.960Z,0
2023-12-24T01:11:15.120Z,0
2023-12-24T01:11:59.627Z,0
2023-12-24T01:13:00.985Z,0
2023-12-24T01:13:59.708Z,0
2023-12-24T01:15:00.993Z,0
2023-12-24T01:15:59.658Z,0
2023-12-24T01:17:00.966Z,0
2023-12-24T01:17:59.831Z,0
2023-12-24T01:18:58.738Z,0
2023-12-24T01:20:01.229Z,0
2023-12-24T01:21:00.006Z,0
2023-12-24T01:21:58.688Z,0
2023-12-24T01:23:01.092Z,0
2023-12-24T01:23:59.850Z,0
2023-12-24T01:25:02.570Z,0
2023-12-24T01:26:00.068Z,0
2023-12-24T01:26:58.741Z,0
2023-12-24T01:28:00.974Z,0
2023-12-24T01:28:59.778Z,0
2023-12-24T01:30:01.415Z,0
2023-12-24T01:31:00.298Z,0
2023-12-24T01:31:59.118Z,0
2023-12-24T01:33:00.383Z,0
2023-12-24T01:33:59.558Z,0
2023-12-24T01:35:00.417Z,0
2023-12-24T01:35:59.327Z,0
2023-12-24T01:37:00.153Z,0
2023-12-24T01:37:58.916Z,0
2023-12-24T01:38:59.604Z,0
2023-12-24T01:40:00.942Z,0
2023-12-24T01:40:59.643Z,0
2023-12-24T01:41:59.146Z,0
2023-12-24T01:42:59.897Z,0
2023-12-24T01:43:58.665Z,0
2023-12-24T01:45:00.975Z,0
2023-12-24T01:45:59.762Z,0
2023-12-24T01:47:01.397Z,0
2023-12-24T01:48:00.238Z,0
2023-12-24T01:49:00.545Z,0
2023-12-24T01:50:01.027Z,0
2023-12-24T01:50:59.806Z,0
2023-12-24T01:52:01.032Z,0
2023-12-24T01:52:59.714Z,0
2023-12-24T01:54:04.110Z,0
2023-12-24T01:55:01.060Z,0
2023-12-24T01:55:59.871Z,0
2023-12-24T01:57:00.956Z,0
2023-12-24T01:57:59.626Z,0
2023-12-24T01:59:00.372Z,0
2023-12-24T01:59:59.026Z,0
2023-12-24T02:00:59.778Z,0
2023-12-24T02:02:01.022Z,0
2023-12-24T02:02:59.882Z,0
2023-12-24T02:03:58.849Z,0
2023-12-24T02:04:59.701Z,0
2023-12-24T02:05:58.756Z,0
2023-12-24T02:07:00.158Z,0
2023-12-24T02:07:58.917Z,0
2023-12-24T02:08:59.596Z,0
2023-12-24T02:10:00.327Z,0
2023-12-24T02:10:59.367Z,0
2023-12-24T02:12:00.506Z,0
2023-12-24T02:12:59.232Z,0
2023-12-24T02:13:59.953Z,0
2023-12-24T02:14:58.902Z,0
2023-12-24T02:16:00.973Z,0
2023-12-24T02:16:59.745Z,0
2023-12-24T02:18:01.211Z,0
2023-12-24T02:19:00.298Z,0
2023-12-24T02:19:59.080Z,0
2023-12-24T02:20:59.774Z,0
2023-12-24T02:22:01.029Z,0
2023-12-24T02:22:59.733Z,0
2023-12-24T02:24:01.019Z,0
2023-12-24T02:24:59.684Z,0
2023-12-24T02:26:00.386Z,0
2023-12-24T02:26:59.116Z,0
2023-12-24T02:27:59.817Z,0
2023-12-24T02:29:01.022Z,0
2023-12-24T02:29:59.716Z,0
2023-12-24T02:31:01.155Z,0
2023-12-24T02:31:59.879Z,0
2023-12-24T02:33:01.287Z,0
2023-12-24T02:34:00.176Z,0
2023-12-24T02:34:58.960Z,0
2023-12-24T02:35:59.669Z,0
2023-12-24T02:37:03.520Z,0
2023-12-24T02:37:59.814Z,0
2023-12-24T02:39:01.019Z,0
2023-12-24T02:39:59.773Z,0
2023-12-24T02:41:01.374Z,0
2023-12-24T02:42:07.499Z,0
2023-12-24T02:43:00.175Z,0
2023-12-24T02:43:58.909Z,0
2023-12-24T02:44:59.612Z,0
2023-12-24T02:46:00.377Z,0
2023-12-24T02:47:10.026Z,0
2023-12-24T02:48:00.529Z,0
2023-12-24T02:48:59.422Z,0
2023-12-24T02:50:00.152Z,0
2023-12-24T02:50:58.961Z,0
2023-12-24T02:52:12.518Z,0
2023-12-24T02:52:59.709Z,0
2023-12-24T02:54:01.034Z,0
2023-12-24T02:54:59.679Z,0
2023-12-24T02:56:00.421Z,0
2023-12-24T02:56:59.174Z,0
2023-12-24T02:57:59.903Z,0
2023-12-24T02:59:00.970Z,0.03888888888888889
2023-12-24T02:59:59.910Z,0
2023-12-24T03:01:01.094Z,0
2023-12-24T03:01:59.945Z,0
2023-12-24T03:02:58.694Z,0
2023-12-24T03:04:00.992Z,0
2023-12-24T03:04:59.720Z,0
2023-12-24T03:06:01.093Z,0
2023-12-24T03:06:59.767Z,0
2023-12-24T03:08:01.036Z,0.03888888888888889
2023-12-24T03:09:00.153Z,0
2023-12-24T03:09:58.857Z,0
2023-12-24T03:10:59.785Z,0
2023-12-24T03:12:01.019Z,0
2023-12-24T03:12:59.682Z,0
2023-12-24T03:14:01.039Z,0
2023-12-24T03:14:59.818Z,0
2023-12-24T03:16:01.053Z,0
2023-12-24T03:17:00.140Z,0
2023-12-24T03:17:59.098Z,0
2023-12-24T03:19:00.270Z,0
2023-12-24T03:19:59.051Z,0
2023-12-24T03:20:59.744Z,0
2023-12-24T03:22:01.021Z,0
2023-12-24T03:22:59.802Z,0.15833333333333333
2023-12-24T03:24:01.393Z,0
2023-12-24T03:25:00.037Z,0
2023-12-24T03:25:58.766Z,0
2023-12-24T03:27:01.020Z,0
2023-12-24T03:27:59.679Z,0
2023-12-24T03:29:01.160Z,0
2023-12-24T03:29:59.793Z,0
2023-12-24T03:31:01.230Z,0
2023-12-24T03:32:00.041Z,0
2023-12-24T03:32:59.339Z,0
2023-12-24T03:34:00.327Z,0
2023-12-24T03:34:59.272Z,0
2023-12-24T03:36:00.071Z,0
2023-12-24T03:36:58.703Z,0
2023-12-24T03:38:01.401Z,0
2023-12-24T03:39:00.187Z,0
2023-12-24T03:39:58.849Z,0
2023-12-24T03:41:01.047Z,0
2023-12-24T03:41:59.678Z,0
2023-12-24T03:43:00.431Z,0
2023-12-24T03:43:59.187Z,0
2023-12-24T03:44:59.891Z,0
2023-12-24T03:46:01.407Z,0
2023-12-24T03:47:00.261Z,0
2023-12-24T03:47:59.151Z,0
2023-12-24T03:48:59.968Z,0.03888888888888889
2023-12-24T03:49:59.216Z,0.03888888888888889
2023-12-24T03:50:59.920Z,0
2023-12-24T03:52:01.090Z,0.11944444444444444
2023-12-24T03:53:01.168Z,0
2023-12-24T03:54:00.252Z,0
2023-12-24T03:54:58.940Z,0
2023-12-24T03:55:59.708Z,0
2023-12-24T03:57:01.104Z,0
2023-12-24T03:57:59.762Z,0
2023-12-24T03:59:01.121Z,0
2023-12-24T04:00:01.834Z,0
2023-12-24T04:00:59.986Z,0
2023-12-24T04:01:58.874Z,0
2023-12-24T04:03:01.285Z,0
2023-12-24T04:04:00.146Z,0
2023-12-24T04:04:58.909Z,0
2023-12-24T04:05:59.614Z,0
2023-12-24T04:07:00.344Z,0
2023-12-24T04:08:04.539Z,0
2023-12-24T04:09:00.038Z,0
2023-12-24T04:09:58.703Z,0
2023-12-24T04:11:01.115Z,0
2023-12-24T04:11:59.857Z,0
2023-12-24T04:13:07.527Z,0
2023-12-24T04:14:00.317Z,0
2023-12-24T04:14:59.325Z,0
2023-12-24T04:16:00.253Z,0
2023-12-24T04:16:58.994Z,0
2023-12-24T04:18:10.842Z,0
2023-12-24T04:18:59.816Z,0
2023-12-24T04:20:01.059Z,0
2023-12-24T04:20:59.856Z,0
2023-12-24T04:22:00.995Z,0
2023-12-24T04:23:13.616Z,0
2023-12-24T04:23:59.641Z,0
2023-12-24T04:25:00.986Z,0
2023-12-24T04:25:59.649Z,0
2023-12-24T04:27:00.357Z,0
2023-12-24T04:27:59.061Z,0
2023-12-24T04:28:59.816Z,0
2023-12-24T04:30:01.069Z,0
2023-12-24T04:30:59.871Z,0
2023-12-24T04:32:01.049Z,0
2023-12-24T04:32:59.720Z,0
2023-12-24T04:34:01.096Z,0.3972222222222222
2023-12-24T04:34:59.838Z,0.7555555555555555
2023-12-24T04:36:01.044Z,0.11944444444444444
2023-12-24T04:36:59.704Z,0
2023-12-24T04:38:01.076Z,0
2023-12-24T04:38:59.837Z,0
2023-12-24T04:40:00.986Z,0
2023-12-24T04:40:59.755Z,0
2023-12-24T04:42:00.970Z,0.19999999999999998
2023-12-24T04:42:59.642Z,0
2023-12-24T04:44:00.394Z,0
2023-12-24T04:44:59.146Z,0
2023-12-24T04:45:59.788Z,0
2023-12-24T04:47:01.363Z,0
2023-12-24T04:48:00.258Z,0
2023-12-24T04:48:59.013Z,0
2023-12-24T04:49:59.863Z,0
2023-12-24T04:51:01.044Z,0
2023-12-24T04:51:59.695Z,0
2023-12-24T04:53:01.070Z,0
2023-12-24T04:53:59.824Z,0
2023-12-24T04:55:03.023Z,0
2023-12-24T04:56:01.125Z,0
2023-12-24T04:56:59.730Z,0
2023-12-24T04:58:01.186Z,0
2023-12-24T04:58:59.862Z,0
2023-12-24T05:00:01.022Z,0
2023-12-24T05:00:59.798Z,0
2023-12-24T05:02:01.052Z,0.3972222222222222
2023-12-24T05:02:59.789Z,0
2023-12-24T05:04:01.085Z,0
2023-12-24T05:05:00.421Z,0
2023-12-24T05:05:59.162Z,0
2023-12-24T05:06:59.926Z,0
2023-12-24T05:07:58.601Z,0
2023-12-24T05:09:00.332Z,0
2023-12-24T05:09:59.012Z,0
2023-12-24T05:10:59.772Z,0
2023-12-24T05:12:00.988Z,0
2023-12-24T05:12:59.733Z,0
2023-12-24T05:14:01.043Z,0
2023-12-24T05:14:59.744Z,0
2023-12-24T05:16:00.994Z,0
2023-12-24T05:16:59.654Z,0
2023-12-24T05:18:00.605Z,0
2023-12-24T05:18:59.535Z,0
2023-12-24T05:20:00.421Z,0
2023-12-24T05:20:59.181Z,0
2023-12-24T05:21:59.948Z,0
2023-12-24T05:22:58.615Z,0
2023-12-24T05:24:00.384Z,0
2023-12-24T05:24:59.107Z,0
2023-12-24T05:25:59.852Z,0
2023-12-24T05:27:01.617Z,0
2023-12-24T05:28:00.346Z,0
2023-12-24T05:28:59.157Z,0
2023-12-24T05:29:59.845Z,0
2023-12-24T05:31:01.062Z,0
2023-12-24T05:31:59.819Z,0
2023-12-24T05:33:01.189Z,0
2023-12-24T05:34:00.067Z,0
2023-12-24T05:34:58.885Z,0
2023-12-24T05:36:01.016Z,0
2023-12-24T05:37:00.221Z,0
2023-12-24T05:37:58.979Z,0
2023-12-24T05:38:59.604Z,0
2023-12-24T05:40:00.407Z,0
2023-12-24T05:40:59.172Z,0
2023-12-24T05:42:00.370Z,0
2023-12-24T05:42:59.105Z,0
2023-12-24T05:44:01.721Z,0
2023-12-24T05:44:59.774Z,0
2023-12-24T05:46:01.011Z,0
2023-12-24T05:46:59.819Z,0
2023-12-24T05:48:01.185Z,0
2023-12-24T05:49:04.680Z,0
2023-12-24T05:50:01.151Z,0
2023-12-24T05:51:00.432Z,0
2023-12-24T05:51:59.155Z,0
2023-12-24T05:52:59.916Z,0
2023-12-24T05:54:07.213Z,0
2023-12-24T05:54:59.701Z,0
2023-12-24T05:56:01.052Z,0
2023-12-24T05:56:59.805Z,0
2023-12-24T05:58:01.056Z,0
2023-12-24T05:59:09.546Z,0
2023-12-24T05:59:59.692Z,0
2023-12-24T06:01:01.106Z,0
2023-12-24T06:01:59.809Z,0
2023-12-24T06:03:01.045Z,0
2023-12-24T06:04:13.060Z,0
2023-12-24T06:04:59.766Z,0
2023-12-24T06:06:01.168Z,0
2023-12-24T06:06:59.883Z,0
2023-12-24T06:08:01.058Z,0
2023-12-24T06:09:15.246Z,0.875
2023-12-24T06:10:00.285Z,0
2023-12-24T06:10:59.046Z,0.19999999999999998
2023-12-24T06:11:59.811Z,0
2023-12-24T06:13:01.056Z,0.08055555555555555
2023-12-24T06:13:59.731Z,0.7944444444444444
2023-12-24T06:15:01.001Z,0.35833333333333334
2023-12-24T06:15:59.712Z,0.675
2023-12-24T06:17:01.172Z,0.35833333333333334
2023-12-24T06:18:00.099Z,0.31666666666666665
2023-12-24T06:18:59.199Z,0.5166666666666667
2023-12-24T06:20:00.238Z,0.03888888888888889
2023-12-24T06:20:59.645Z,0.35833333333333334
2023-12-24T06:22:00.960Z,0.5166666666666667
2023-12-24T06:22:59.677Z,0.9527777777777778
2023-12-24T06:24:00.387Z,0.5972222222222222
2023-12-24T06:24:59.013Z,1.0722222222222222
2023-12-24T06:25:59.730Z,0.5972222222222222
2023-12-24T06:27:01.036Z,0.5972222222222222
2023-12-24T06:27:59.894Z,1.1111111111111112
2023-12-24T06:29:01.107Z,1.2305555555555554
2023-12-24T06:29:59.907Z,0.47777777777777775
2023-12-24T06:31:01.207Z,0.875
2023-12-24T06:31:59.932Z,0.8333333333333333
2023-12-24T06:32:58.705Z,0.875
2023-12-24T06:34:01.001Z,1.2305555555555554
2023-12-24T06:34:59.770Z,1.0333333333333334
2023-12-24T06:36:00.993Z,0.8333333333333333
2023-12-24T06:36:59.651Z,0.5555555555555556
2023-12-24T06:38:00.771Z,1.7083333333333335
2023-12-24T06:38:59.450Z,0.5555555555555556
2023-12-24T06:40:00.381Z,1.3916666666666666
2023-12-24T06:40:59.081Z,0.5972222222222222
2023-12-24T06:41:59.894Z,0.5166666666666667
2023-12-24T06:43:01.154Z,1.0333333333333334
2023-12-24T06:43:59.849Z,1.4694444444444443
2023-12-24T06:45:01.076Z,1.6694444444444443
2023-12-24T06:46:00.051Z,1.5888888888888888
2023-12-24T06:46:58.799Z,0.9138888888888889
2023-12-24T06:48:01.415Z,0.7722222222222221
2023-12-24T06:49:00.627Z,1.6277777777777778
2023-12-24T06:49:59.435Z,0.7944444444444444
2023-12-24T06:51:00.154Z,0.9138888888888889
2023-12-24T06:51:58.814Z,1.2305555555555554
2023-12-24T06:53:01.035Z,1.1111111111111112
2023-12-24T06:53:59.775Z,1.6694444444444443
2023-12-24T06:55:01.020Z,1.35
2023-12-24T06:55:59.682Z,0.7138888888888888
2023-12-24T06:57:01.054Z,1.3916666666666666
2023-12-24T06:57:59.791Z,1.1111111111111112
2023-12-24T06:59:01.070Z,1.788888888888889
2023-12-24T06:59:59.815Z,1.0722222222222222
2023-12-24T07:01:01.051Z,1.6694444444444443
2023-12-24T07:01:59.840Z,0.7555555555555555
2023-12-24T07:03:01.106Z,2.263888888888889
2023-12-24T07:03:59.839Z,0.15833333333333333
2023-12-24T07:05:01.220Z,1.35
2023-12-24T07:06:00.014Z,1.0722222222222222
2023-12-24T07:06:58.807Z,0.8333333333333333
2023-12-24T07:08:01.058Z,0.5972222222222222
2023-12-24T07:08:59.759Z,0.7138888888888888
2023-12-24T07:10:03.468Z,1.611111111111111
2023-12-24T07:11:01.009Z,1.3111111111111111
2023-12-24T07:11:59.672Z,2.1055555555555556
2023-12-24T07:13:00.413Z,0.9138888888888889
2023-12-24T07:13:59.168Z,1.1111111111111112
2023-12-24T07:14:59.917Z,1.488888888888889
2023-12-24T07:15:58.663Z,0.6361111111111111
2023-12-24T07:17:00.477Z,1.4305555555555556
2023-12-24T07:17:59.329Z,0.5555555555555556
2023-12-24T07:19:00.222Z,1.35
2023-12-24T07:19:58.997Z,1.3916666666666666
2023-12-24T07:20:59.730Z,1.3111111111111111
2023-12-24T07:22:01.028Z,1.9861111111111112
2023-12-24T07:23:02.814Z,1.5083333333333333
2023-12-24T07:23:59.667Z,0.7138888888888888
2023-12-24T07:25:00.987Z,2.4222222222222225
2023-12-24T07:25:59.686Z,0.675
2023-12-24T07:27:01.038Z,0.15833333333333333
2023-12-24T07:27:59.744Z,0.7555555555555555
2023-12-24T07:29:01.150Z,0.675
2023-12-24T07:30:00.598Z,1.163888888888889
2023-12-24T07:30:59.825Z,1.2722222222222221
2023-12-24T07:32:01.100Z,1.4305555555555556
2023-12-24T07:33:00.052Z,0.19999999999999998
2023-12-24T07:33:58.926Z,0.8333333333333333
2023-12-24T07:35:04.089Z,1.0083333333333333
2023-12-24T07:35:59.736Z,1.6277777777777778
2023-12-24T07:37:00.961Z,0.9527777777777778
2023-12-24T07:37:59.682Z,1.4694444444444443
2023-12-24T07:39:01.002Z,0.9138888888888889
2023-12-24T07:40:07.568Z,0.9527777777777778
2023-12-24T07:40:59.744Z,1.2722222222222221
2023-12-24T07:42:00.991Z,0.4361111111111111
2023-12-24T07:42:59.887Z,1.8666666666666665
2023-12-24T07:44:01.059Z,1.8666666666666665
2023-12-24T07:45:10.662Z,1.0333333333333334
2023-12-24T07:46:00.198Z,2.025
2023-12-24T07:46:58.865Z,1.0722222222222222
2023-12-24T07:48:01.115Z,1.2305555555555554
2023-12-24T07:49:00.038Z,1.3111111111111111
2023-12-24T07:49:58.868Z,0.875
2023-12-24T07:51:01.328Z,1.0722222222222222
2023-12-24T07:52:00.072Z,0.4361111111111111
2023-12-24T07:52:58.803Z,1.9055555555555557
2023-12-24T07:54:01.095Z,1.5083333333333333
2023-12-24T07:54:59.728Z,2.861111111111111
2023-12-24T07:56:01.265Z,1.6694444444444443
2023-12-24T07:57:00.050Z,1.3111111111111111
2023-12-24T07:57:58.717Z,1.0722222222222222
2023-12-24T07:59:01.429Z,0.6638888888888889
2023-12-24T08:00:00.076Z,1.4305555555555556
2023-12-24T08:00:58.809Z,1.4694444444444443
2023-12-24T08:02:01.055Z,0.7138888888888888
2023-12-24T08:02:59.865Z,1.2305555555555554
2023-12-24T08:04:01.031Z,2.066666666666667
2023-12-24T08:04:59.737Z,0.3972222222222222
2023-12-24T08:06:01.247Z,1.152777777777778
2023-12-24T08:07:00.212Z,0.35833333333333334
2023-12-24T08:07:59.038Z,1.9472222222222222
2023-12-24T08:08:59.721Z,2.025
2023-12-24T08:10:00.968Z,1.6277777777777778
2023-12-24T08:11:07.059Z,1.4305555555555556
2023-12-24T08:12:00.219Z,1.2722222222222221
2023-12-24T08:13:05.299Z,0.5972222222222222
2023-12-24T08:14:01.145Z,0.4361111111111111
2023-12-24T08:14:59.876Z,0.47777777777777775
2023-12-24T08:16:01.140Z,2.186111111111111
2023-12-24T08:16:59.899Z,0.875
2023-12-24T08:18:01.269Z,1.3916666666666666
2023-12-24T08:19:00.342Z,1.6277777777777778
2023-12-24T08:19:59.388Z,1.35
2023-12-24T08:21:00.193Z,1.8666666666666665
2023-12-24T08:21:59.206Z,0.8333333333333333
2023-12-24T08:22:59.917Z,1.6277777777777778
2023-12-24T08:24:01.058Z,1.7472222222222222
2023-12-24T08:25:00.132Z,0.35833333333333334
2023-12-24T08:25:58.796Z,1.6277777777777778
2023-12-24T08:27:01.016Z,0.35833333333333334
2023-12-24T08:27:59.739Z,2.4222222222222225
2023-12-24T08:29:01.108Z,1.7472222222222222
2023-12-24T08:29:59.879Z,1.3916666666666666
2023-12-24T08:31:01.057Z,1.7083333333333335
2023-12-24T08:32:00.028Z,0.15833333333333333
2023-12-24T08:32:59.135Z,2.3833333333333333
2023-12-24T08:33:58.692Z,0.8333333333333333
2023-12-24T08:35:01.490Z,0.7472222222222222
2023-12-24T08:36:00.205Z,1.0333333333333334
2023-12-24T08:36:59.313Z,2.1444444444444444
2023-12-24T08:38:00.077Z,2.5416666666666665
2023-12-24T08:38:58.775Z,1.55
2023-12-24T08:40:01.160Z,1.3111111111111111
2023-12-24T08:40:59.858Z,3.138888888888889
2023-12-24T08:42:01.701Z,1.7083333333333335
2023-12-24T08:43:00.975Z,1.3111111111111111
2023-12-24T08:43:59.639Z,2.3833333333333333
2023-12-24T08:45:00.385Z,0.2777777777777778
2023-12-24T08:45:59.189Z,1.6888888888888889
2023-12-24T08:46:59.969Z,1.4694444444444443
2023-12-24T08:47:58.803Z,1.4694444444444443
2023-12-24T08:49:01.186Z,1.8666666666666665
2023-12-24T08:49:59.879Z,1.55
2023-12-24T08:51:01.049Z,1.8305555555555555
2023-12-24T08:51:59.808Z,0.5972222222222222
2023-12-24T08:53:59.807Z,1.2305555555555554
2023-12-24T08:55:01.522Z,1.086111111111111
2023-12-24T08:56:00.305Z,1.4166666666666665
2023-12-24T08:56:59.104Z,1.3111111111111111
2023-12-24T08:57:59.830Z,1.35
2023-12-24T08:59:00.988Z,1.3916666666666666
2023-12-24T08:59:59.637Z,0.5972222222222222
2023-12-24T09:01:00.495Z,1.8583333333333334
2023-12-24T09:01:59.308Z,0.8333333333333333
2023-12-24T09:02:59.973Z,0.9527777777777778
2023-12-24T09:03:58.679Z,2.3027777777777776
2023-12-24T09:05:01.075Z,3.4972222222222222
2023-12-24T09:05:59.836Z,2.1638888888888888
2023-12-24T09:06:58.809Z,0.7944444444444444
2023-12-24T09:08:00.053Z,0.9944444444444445
2023-12-24T09:08:58.928Z,1.152777777777778
2023-12-24T09:09:59.586Z,1.3916666666666666
2023-12-24T09:11:01.076Z,2.086111111111111
2023-12-24T09:11:59.806Z,2.9805555555555556
2023-12-24T09:13:01.068Z,2.1055555555555556
2023-12-24T09:13:59.686Z,1.1111111111111112
2023-12-24T09:14:58.741Z,1.1916666666666667
2023-12-24T09:16:03.423Z,1.6249999999999998
2023-12-24T09:17:01.069Z,0.9944444444444445
2023-12-24T09:17:59.879Z,1.2305555555555554
2023-12-24T09:18:58.739Z,1.6277777777777778
2023-12-24T09:20:04.019Z,1.8666666666666665
2023-12-24T09:21:06.722Z,1.0444444444444443
2023-12-24T09:21:59.976Z,1.0722222222222222
2023-12-24T09:22:58.665Z,1.0722222222222222
2023-12-24T09:24:00.406Z,0.5166666666666667
2023-12-24T09:24:59.375Z,0.03888888888888889
2023-12-24T09:26:09.231Z,2.369444444444444
2023-12-24T09:27:01.097Z,1.8666666666666665
2023-12-24T09:27:59.937Z,0.7138888888888888
2023-12-24T09:28:58.599Z,2.186111111111111
2023-12-24T09:30:00.318Z,0.7555555555555555
2023-12-24T09:31:10.233Z,0.08055555555555555
2023-12-24T09:31:59.948Z,0.875
2023-12-24T09:32:58.778Z,1.3111111111111111
2023-12-24T09:34:01.130Z,0.7555555555555555
2023-12-24T09:34:59.914Z,0.8333333333333333
2023-12-24T09:36:14.182Z,2.5055555555555555
2023-12-24T09:37:01.016Z,1.55
2023-12-24T09:37:59.673Z,1.3916666666666666
2023-12-24T09:39:00.633Z,2.3833333333333333
2023-12-24T09:39:59.279Z,1.8666666666666665
2023-12-24T09:40:59.955Z,1.6277777777777778
2023-12-24T09:41:58.693Z,1.1916666666666667
2023-12-24T09:43:01.097Z,1.4305555555555556
2023-12-24T09:43:59.808Z,1.6694444444444443
2023-12-24T09:45:00.953Z,0.5555555555555556
2023-12-24T09:45:59.631Z,1.0722222222222222
2023-12-24T09:47:00.639Z,0.9944444444444445
2023-12-24T09:47:59.442Z,2.1444444444444444
2023-12-24T09:49:00.439Z,1.9472222222222222
2023-12-24T09:49:59.152Z,0.7555555555555555
2023-12-24T09:51:00.187Z,0.7555555555555555
2023-12-24T09:51:58.846Z,0.6361111111111111
2023-12-24T09:53:01.072Z,0.3972222222222222
2023-12-24T09:53:59.789Z,1.0722222222222222
2023-12-24T09:55:00.977Z,2.225
2023-12-24T09:55:59.686Z,1.4694444444444443
2023-12-24T09:57:00.944Z,1.3111111111111111
2023-12-24T09:57:59.607Z,0.7944444444444444
2023-12-24T09:59:05.325Z,1.1916666666666667
2023-12-24T10:00:00.335Z,1.152777777777778
2023-12-24T10:00:59.027Z,1.9055555555555557
2023-12-24T10:01:59.728Z,1.35
2023-12-24T10:03:01.122Z,1.5083333333333333
2023-12-24T10:04:00.063Z,2.661111111111111
2023-12-24T10:05:01.228Z,0.9527777777777778
2023-12-24T10:06:00.171Z,2.3833333333333333
2023-12-24T10:06:58.931Z,0.9527777777777778
2023-12-24T10:07:59.617Z,1.9472222222222222
2023-12-24T10:09:00.267Z,0.7138888888888888
2023-12-24T10:09:58.976Z,1.8666666666666665
2023-12-24T10:10:59.669Z,2.1444444444444444
2023-12-24T10:12:01.050Z,2.1055555555555556
2023-12-24T10:12:59.804Z,1.7083333333333335
2023-12-24T10:14:01.083Z,2.9388888888888887
2023-12-24T10:15:00.236Z,1.152777777777778
2023-12-24T10:15:59.089Z,1.3916666666666666
2023-12-24T10:16:59.822Z,1.9861111111111112
2023-12-24T10:18:01.021Z,1.0333333333333334
2023-12-24T10:18:59.960Z,1.1111111111111112
2023-12-24T10:19:58.748Z,1.1111111111111112
2023-12-24T10:21:01.171Z,2.661111111111111
2023-12-24T10:21:59.853Z,0.8333333333333333
2023-12-24T10:23:00.999Z,1.3111111111111111
2023-12-24T10:24:00.035Z,1.9055555555555557
2023-12-24T10:24:58.790Z,1.8666666666666665
2023-12-24T10:26:00.997Z,0.7138888888888888
2023-12-24T10:26:59.676Z,1.9055555555555557
2023-12-24T10:28:03.069Z,1.3916666666666666
2023-12-24T10:29:04.616Z,2.4638888888888886
2023-12-24T10:29:59.923Z,2.1444444444444444
2023-12-24T10:30:58.706Z,1.4305555555555556
2023-12-24T10:32:00.961Z,1.152777777777778
2023-12-24T10:33:00.090Z,1.2722222222222221
2023-12-24T10:33:58.934Z,1.3111111111111111
2023-12-24T10:34:59.618Z,1.0333333333333334
2023-12-24T10:36:00.248Z,2.344444444444444
2023-12-24T10:36:58.910Z,1.5305555555555554
2023-12-24T10:38:01.925Z,1.1111111111111112
2023-12-24T10:39:01.073Z,1.2305555555555554
2023-12-24T10:39:59.839Z,0.5555555555555556
2023-12-24T10:41:01.009Z,0.2777777777777778
2023-12-24T10:41:59.891Z,2.2888888888888888
2023-12-24T10:43:01.234Z,1.9861111111111112
2023-12-24T10:43:59.878Z,2.7
2023-12-24T10:45:01.170Z,1.152777777777778
2023-12-24T10:45:59.893Z,1.6694444444444443
2023-12-24T10:47:01.104Z,0.5416666666666666
2023-12-24T10:47:59.933Z,1.1916666666666667
2023-12-24T10:48:58.868Z,0.4361111111111111
2023-12-24T10:50:03.668Z,1.2305555555555554
2023-12-24T10:51:00.955Z,1.35
2023-12-24T10:51:59.584Z,1.0083333333333333
2023-12-24T10:53:00.248Z,1.2722222222222221
2023-12-24T10:53:59.114Z,1.4694444444444443
2023-12-24T10:54:59.946Z,1.4694444444444443
2023-12-24T10:55:58.629Z,1.2722222222222221
2023-12-24T10:57:01.038Z,1.5944444444444446
2023-12-24T10:57:59.841Z,2.263888888888889
2023-12-24T10:59:01.022Z,1.0722222222222222
2023-12-24T10:59:59.778Z,1.5083333333333333
2023-12-24T11:01:01.067Z,0.47777777777777775
2023-12-24T11:02:01.435Z,0.8972222222222221
2023-12-24T11:02:59.782Z,0.19999999999999998
2023-12-24T11:04:01.164Z,0.7944444444444444
2023-12-24T11:04:59.997Z,0.7138888888888888
2023-12-24T11:05:59.036Z,1.3916666666666666
2023-12-24T11:07:04.004Z,1.0055555555555555
2023-12-24T11:07:59.840Z,1.9861111111111112
2023-12-24T11:09:01.164Z,1.3916666666666666
2023-12-24T11:10:00.061Z,2.025
2023-12-24T11:10:58.775Z,1.1111111111111112
2023-12-24T11:12:06.217Z,1.5361111111111112
2023-12-24T11:13:05.835Z,1.0333333333333334
2023-12-24T11:14:00.087Z,1.9055555555555557
2023-12-24T11:14:58.728Z,1.152777777777778
2023-12-24T11:16:01.058Z,2.025
2023-12-24T11:17:08.565Z,1.8666666666666665
2023-12-24T11:18:00.399Z,1.9472222222222222
2023-12-24T11:18:59.653Z,1.3916666666666666
2023-12-24T11:20:00.702Z,0.9138888888888889
2023-12-24T11:20:59.498Z,2.8194444444444446
2023-12-24T11:22:10.520Z,1.1111111111111112
2023-12-24T11:23:00.208Z,0.9527777777777778
2023-12-24T11:23:58.930Z,0.7944444444444444
2023-12-24T11:25:01.005Z,0.5555555555555556
2023-12-24T11:25:59.619Z,0.7138888888888888
2023-12-24T11:27:12.329Z,0.9944444444444445
2023-12-24T11:28:00.236Z,1.152777777777778
2023-12-24T11:28:58.916Z,0.3972222222222222
2023-12-24T11:30:02.609Z,0.6361111111111111
2023-12-24T11:31:01.044Z,0.5972222222222222
2023-12-24T11:32:14.242Z,1.0333333333333334